Time;durP1;ratioP1;P1;durP2;ratioP2;P2;SDS_P1;SDS_P2;PMS_P1;PMS_P2;Temp;Humidity;BMP_temperature;BMP_pressure;BME280_temperature;BME280_humidity;BME280_pressure;Samples;Min_cycle;Max_cycle;Signal;HPM_P1;HPM_P2
2021/12/01 00:03:54;;;;;;;3.63;2.38;;;22.70;60.80;;;;;;31554458;28;20067;-48
2021/12/01 00:27:53;;;;;;;8.65;1.23;;;22.40;61.50;;;;;;31227896;22;9999845;-56
2021/12/01 00:42:55;;;;;;;2.83;1.58;;;22.60;61.20;;;;;;31839865;28;20065;-59
2021/12/01 00:57:58;;;;;;;2.47;1.67;;;23.00;61.20;;;;;;31745552;28;20147;-60
2021/12/01 01:28:25;;;;;;;2.85;1.70;;;22.90;60.70;;;;;;31751755;28;20053;-57
2021/12/01 01:43:27;;;;;;;3.00;1.80;;;22.80;61.10;;;;;;31637961;28;20935;-58
2021/12/01 01:58:32;;;;;;;2.88;1.65;;;22.70;61.10;;;;;;31731044;28;20118;-56
2021/12/01 02:13:34;;;;;;;2.38;1.75;;;22.50;61.40;;;;;;31685341;28;20071;-60
2021/12/01 02:28:37;;;;;;;1.92;1.40;;;22.50;61.30;;;;;;31291801;28;10000802;-57
2021/12/01 02:43:40;;;;;;;2.20;1.35;;;23.00;61.40;;;;;;31639074;28;20127;-58
2021/12/01 02:58:44;;;;;;;2.28;1.48;;;23.00;61.00;;;;;;31685665;28;20060;-57
2021/12/01 03:13:46;;;;;;;1.10;1.00;;;23.00;60.90;;;;;;31635923;28;20051;-57
2021/12/01 03:28:48;;;;;;;1.55;1.20;;;22.90;61.20;;;;;;31680953;28;20108;-57
2021/12/01 03:43:50;;;;;;;1.30;1.15;;;22.70;61.80;;;;;;31751060;28;20063;-54
2021/12/01 03:58:53;;;;;;;2.08;1.20;;;22.50;62.10;;;;;;31755387;28;20044;-56
2021/12/01 04:13:56;;;;;;;1.23;0.80;;;22.50;62.30;;;;;;31704805;28;20153;-59
2021/12/01 04:29:00;;;;;;;1.52;1.20;;;23.00;62.40;;;;;;31752088;28;20055;-54
2021/12/01 04:44:08;;;;;;;1.40;1.10;;;23.00;62.10;;;;;;31752559;28;20066;-51
2021/12/01 04:59:10;;;;;;;1.98;1.05;;;23.00;61.80;;;;;;31675218;28;20068;-58
2021/12/01 05:14:13;;;;;;;1.67;0.90;;;22.90;61.60;;;;;;31757926;28;20070;-57
2021/12/01 05:29:16;;;;;;;2.33;1.20;;;22.70;61.80;;;;;;31712097;28;20048;-57
2021/12/01 05:44:18;;;;;;;0.93;0.93;;;22.60;61.90;;;;;;31707424;28;20063;-57
2021/12/01 05:59:20;;;;;;;1.00;0.88;;;22.60;62.10;;;;;;31708400;28;20047;-57
2021/12/01 06:14:22;;;;;;;1.75;1.08;;;23.00;62.00;;;;;;31746019;28;20606;-57
2021/12/01 06:29:25;;;;;;;4.25;1.27;;;23.00;61.80;;;;;;31635750;28;20056;-56
2021/12/01 06:44:30;;;;;;;4.25;2.10;;;23.00;61.50;;;;;;31677327;28;20134;-60
2021/12/01 06:59:32;;;;;;;9.45;2.78;;;22.90;61.70;;;;;;31610603;28;20566;-57
2021/12/01 07:14:34;;;;;;;5.20;1.92;;;22.80;61.90;;;;;;31608986;28;20119;-48
2021/12/01 07:29:36;;;;;;;2.35;0.70;;;22.60;62.40;;;;;;31622835;28;20194;-57
2021/12/01 07:44:39;;;;;;;0.60;0.45;;;23.20;61.00;;;;;;31518762;28;20069;-58
2021/12/01 07:59:41;;;;;;;0.43;0.30;;;23.40;60.50;;;;;;31566565;28;20128;-50
2021/12/01 08:14:43;;;;;;;2.30;1.50;;;23.30;61.00;;;;;;31502116;28;20083;-48
2021/12/01 08:29:45;;;;;;;9.80;6.40;;;23.00;61.40;;;;;;31543371;28;20052;-55
2021/12/01 08:44:49;;;;;;;4.60;2.40;;;22.80;60.60;;;;;;31537876;28;20056;-56
2021/12/01 08:59:51;;;;;;;16.58;11.00;;;22.70;60.50;;;;;;31614258;28;20156;-53
2021/12/01 09:14:55;;;;;;;12.27;9.50;;;22.80;59.90;;;;;;31634260;28;20076;-46
2021/12/01 09:29:57;;;;;;;12.15;10.02;;;23.00;59.60;;;;;;31636152;28;20052;-49
2021/12/01 09:44:59;;;;;;;14.65;9.35;;;23.30;59.00;;;;;;31632108;28;20067;-51
2021/12/01 10:00:02;;;;;;;10.70;8.27;;;23.20;59.30;;;;;;31639559;28;20045;-46
2021/12/01 10:15:04;;;;;;;18.15;11.00;;;23.10;59.70;;;;;;31632823;28;20048;-51
2021/12/01 10:30:07;;;;;;;16.27;11.85;;;23.00;59.70;;;;;;31636770;28;20051;-57
2021/12/01 10:45:09;;;;;;;13.50;9.95;;;22.80;60.00;;;;;;31631983;28;20096;-57
2021/12/01 11:00:24;;;;;;;10.88;8.55;;;22.60;60.50;;;;;;31616957;28;20128;-57
2021/12/01 11:15:32;;;;;;;8.75;7.85;;;23.00;60.10;;;;;;31622783;28;20049;-57
2021/12/01 11:30:58;;;;;;;9.13;6.88;;;23.20;59.60;;;;;;31582206;28;20078;-50
2021/12/01 11:46:01;;;;;;;6.55;5.82;;;23.20;59.90;;;;;;31499813;28;20041;-53
2021/12/01 12:01:03;;;;;;;10.10;6.88;;;23.10;59.90;;;;;;31186900;28;10000046;-52
2021/12/01 12:16:22;;;;;;;11.25;7.78;;;23.00;60.10;;;;;;31589251;28;20080;-50
2021/12/01 12:31:27;;;;;;;10.68;6.65;;;22.90;60.50;;;;;;31495641;28;20521;-54
2021/12/01 12:46:30;;;;;;;9.27;6.13;;;22.80;60.30;;;;;;31493384;28;20095;-53
2021/12/01 13:01:32;;;;;;;8.00;5.70;;;23.00;60.50;;;;;;31587175;28;20048;-46
2021/12/01 13:16:35;;;;;;;9.15;5.35;;;23.40;60.70;;;;;;31617105;28;20055;-45
2021/12/01 13:31:42;;;;;;;8.23;5.60;;;23.30;60.70;;;;;;31650597;28;20071;-46
2021/12/01 13:46:46;;;;;;;24.15;9.35;;;23.20;61.50;;;;;;31525324;28;20068;-49
2021/12/01 14:01:49;;;;;;;14.27;6.70;;;23.10;58.60;;;;;;31638199;28;20055;-51
2021/12/01 14:17:00;;;;;;;10.40;5.70;;;23.00;59.90;;;;;;31629448;28;20083;-46
2021/12/01 14:32:05;;;;;;;21.23;6.22;;;22.90;59.90;;;;;;31637065;28;20091;-45
2021/12/01 14:47:15;;;;;;;16.23;5.45;;;22.90;60.10;;;;;;31634546;28;20051;-47
2021/12/01 15:02:22;;;;;;;15.27;6.13;;;23.20;60.40;;;;;;31631708;28;20098;-47
2021/12/01 15:17:24;;;;;;;11.93;5.15;;;23.30;60.50;;;;;;31628648;28;20047;-48
2021/12/01 15:32:26;;;;;;;19.17;4.75;;;23.20;60.70;;;;;;31627458;28;20076;-52
2021/12/01 15:47:28;;;;;;;13.30;4.70;;;23.20;60.80;;;;;;31621663;28;20056;-53
2021/12/01 16:02:30;;;;;;;13.77;4.75;;;23.10;60.80;;;;;;31526569;28;20041;-51
2021/12/01 16:17:37;;;;;;;8.60;4.28;;;22.90;61.40;;;;;;31490641;28;20053;-49
2021/12/01 16:32:41;;;;;;;8.35;4.35;;;22.90;61.70;;;;;;31489568;28;20075;-55
2021/12/01 16:47:43;;;;;;;5.60;3.83;;;22.80;62.30;;;;;;31484644;28;20071;-54
2021/12/01 17:02:46;;;;;;;10.20;3.75;;;22.70;62.70;;;;;;31500928;28;20044;-49
2021/12/01 17:17:48;;;;;;;7.90;3.85;;;22.70;62.80;;;;;;31544587;28;20056;-47
2021/12/01 17:32:54;;;;;;;6.93;3.60;;;22.60;63.00;;;;;;31583107;28;20158;-58
2021/12/01 17:47:56;;;;;;;11.02;4.18;;;22.60;63.20;;;;;;31605121;28;20068;-59
2021/12/01 18:02:58;;;;;;;17.30;3.83;;;22.40;63.20;;;;;;31260710;28;10000167;-48
2021/12/01 18:18:01;;;;;;;7.53;3.30;;;22.40;63.20;;;;;;31571574;28;20294;-61
2021/12/01 18:33:03;;;;;;;7.18;3.88;;;22.40;62.90;;;;;;31543151;28;20044;-49
2021/12/01 18:48:05;;;;;;;10.32;2.95;;;23.00;62.90;;;;;;31498638;28;20154;-50
2021/12/01 19:03:07;;;;;;;8.50;2.97;;;23.30;62.70;;;;;;31526356;28;20101;-50
2021/12/01 19:18:12;;;;;;;8.05;2.83;;;23.40;62.60;;;;;;31621119;28;20147;-51
2021/12/01 19:33:15;;;;;;;18.90;5.28;;;23.30;62.60;;;;;;31615019;28;20045;-46
2021/12/01 19:48:19;;;;;;;6.85;5.47;;;22.60;53.20;;;;;;31540513;28;20041;-50
2021/12/01 20:03:22;;;;;;;7.25;4.00;;;22.40;51.00;;;;;;31544075;28;20041;-50
2021/12/01 20:18:26;;;;;;;9.75;4.18;;;22.60;60.20;;;;;;31563613;28;20086;-44
2021/12/01 20:33:30;;;;;;;9.93;3.88;;;22.50;60.00;;;;;;31578009;28;20099;-48
2021/12/01 21:04:10;;;;;;;5.30;3.08;;;22.70;59.70;;;;;;31587083;28;20073;-45
2021/12/01 21:19:13;;;;;;;;;;;22.70;59.60;;;;;;31544268;28;20108;-46
2021/12/01 21:34:16;;;;;;;27.25;20.85;;;22.70;58.20;;;;;;31580501;28;19992;-45
2021/12/01 21:49:18;;;;;;;25.10;18.90;;;22.60;59.40;;;;;;31609279;28;20053;-46
2021/12/01 22:04:22;;;;;;;23.60;16.30;;;22.70;59.60;;;;;;31529584;28;20094;-48
2021/12/01 22:19:25;;;;;;;21.63;15.75;;;22.70;59.70;;;;;;31588966;28;20052;-46
2021/12/01 22:34:28;;;;;;;20.45;14.52;;;22.70;59.70;;;;;;31624062;28;20158;-47
2021/12/01 22:49:30;;;;;;;18.73;15.38;;;22.70;60.70;;;;;;31624417;28;20082;-42
2021/12/01 23:04:36;;;;;;;12.27;9.40;;;22.60;60.00;;;;;;31603635;28;20064;-41
2021/12/01 23:19:39;;;;;;;7.00;6.30;;;23.00;60.30;;;;;;31568903;28;20049;-51
2021/12/01 23:34:41;;;;;;;4.82;3.20;;;23.40;60.00;;;;;;31549181;28;20079;-49
